sensor_id;sensor_type;location;lat;lon;timestamp;temperature;humidity
21271;DHT22;10795;50.796;3.860;2023-07-13T00:01:51;15.70;99.90
21271;DHT22;10795;50.796;3.860;2023-07-13T00:04:20;15.70;99.90
21271;DHT22;10795;50.796;3.860;2023-07-13T00:06:47;15.70;99.90
21271;DHT22;10795;50.796;3.860;2023-07-13T00:09:14;15.80;99.90
21271;DHT22;10795;50.796;3.860;2023-07-13T00:11:41;15.70;99.90
21271;DHT22;10795;50.796;3.860;2023-07-13T00:14:07;15.70;99.90
21271;DHT22;10795;50.796;3.860;2023-07-13T00:16:35;15.70;99.90
21271;DHT22;10795;50.796;3.860;2023-07-13T00:19:01;15.70;99.90
21271;DHT22;10795;50.796;3.860;2023-07-13T00:21:27;15.60;99.90
21271;DHT22;10795;50.796;3.860;2023-07-13T00:23:53;15.70;99.90
21271;DHT22;10795;50.796;3.860;2023-07-13T00:26:18;15.70;99.90
21271;DHT22;10795;50.796;3.860;2023-07-13T00:28:44;15.50;99.90
21271;DHT22;10795;50.796;3.860;2023-07-13T00:31:12;15.50;99.90
21271;DHT22;10795;50.796;3.860;2023-07-13T00:33:38;15.50;99.90
21271;DHT22;10795;50.796;3.860;2023-07-13T00:36:04;15.60;99.90
21271;DHT22;10795;50.796;3.860;2023-07-13T00:38:30;15.60;99.90
21271;DHT22;10795;50.796;3.860;2023-07-13T00:40:56;15.40;99.90
21271;DHT22;10795;50.796;3.860;2023-07-13T00:43:25;15.90;99.90
21271;DHT22;10795;50.796;3.860;2023-07-13T00:48:21;15.90;99.90
21271;DHT22;10795;50.796;3.860;2023-07-13T00:50:51;16.20;99.90
21271;DHT22;10795;50.796;3.860;2023-07-13T00:53:18;15.70;99.90
21271;DHT22;10795;50.796;3.860;2023-07-13T00:55:45;15.90;99.90
21271;DHT22;10795;50.796;3.860;2023-07-13T00:58:12;16.10;99.90
21271;DHT22;10795;50.796;3.860;2023-07-13T01:00:38;15.90;99.90
21271;DHT22;10795;50.796;3.860;2023-07-13T01:03:05;15.60;99.90
21271;DHT22;10795;50.796;3.860;2023-07-13T01:05:33;15.60;99.90
21271;DHT22;10795;50.796;3.860;2023-07-13T01:08:01;15.40;99.90
21271;DHT22;10795;50.796;3.860;2023-07-13T01:10:27;15.50;99.90
21271;DHT22;10795;50.796;3.860;2023-07-13T01:12:53;15.50;99.90
21271;DHT22;10795;50.796;3.860;2023-07-13T01:15:41;15.20;99.90
21271;DHT22;10795;50.796;3.860;2023-07-13T01:18:12;15.20;99.90
21271;DHT22;10795;50.796;3.860;2023-07-13T01:20:40;15.20;99.90
21271;DHT22;10795;50.796;3.860;2023-07-13T01:23:09;15.10;99.90
21271;DHT22;10795;50.796;3.860;2023-07-13T01:25:37;15.00;99.90
21271;DHT22;10795;50.796;3.860;2023-07-13T01:28:08;14.90;99.90
21271;DHT22;10795;50.796;3.860;2023-07-13T01:30:39;14.80;99.90
21271;DHT22;10795;50.796;3.860;2023-07-13T01:33:07;14.70;99.90
21271;DHT22;10795;50.796;3.860;2023-07-13T01:35:34;14.70;99.90
21271;DHT22;10795;50.796;3.860;2023-07-13T01:37:59;14.70;99.90
21271;DHT22;10795;50.796;3.860;2023-07-13T01:40:27;14.80;99.90
21271;DHT22;10795;50.796;3.860;2023-07-13T01:42:53;14.90;99.90
21271;DHT22;10795;50.796;3.860;2023-07-13T01:45:20;14.70;99.90
21271;DHT22;10795;50.796;3.860;2023-07-13T01:47:47;14.70;99.90
21271;DHT22;10795;50.796;3.860;2023-07-13T01:50:12;14.60;99.90
21271;DHT22;10795;50.796;3.860;2023-07-13T01:52:38;14.70;99.90
21271;DHT22;10795;50.796;3.860;2023-07-13T01:55:04;14.70;99.90
21271;DHT22;10795;50.796;3.860;2023-07-13T01:57:30;14.60;99.90
21271;DHT22;10795;50.796;3.860;2023-07-13T01:59:56;14.50;99.90
21271;DHT22;10795;50.796;3.860;2023-07-13T02:02:22;14.60;99.90
21271;DHT22;10795;50.796;3.860;2023-07-13T02:04:48;14.50;99.90
21271;DHT22;10795;50.796;3.860;2023-07-13T02:07:14;14.40;99.90
21271;DHT22;10795;50.796;3.860;2023-07-13T02:09:40;14.40;99.90
21271;DHT22;10795;50.796;3.860;2023-07-13T02:12:07;14.40;99.90
21271;DHT22;10795;50.796;3.860;2023-07-13T02:14:33;14.30;99.90
21271;DHT22;10795;50.796;3.860;2023-07-13T02:16:59;14.30;99.90
21271;DHT22;10795;50.796;3.860;2023-07-13T02:19:25;14.30;99.90
21271;DHT22;10795;50.796;3.860;2023-07-13T02:21:51;14.30;99.90
21271;DHT22;10795;50.796;3.860;2023-07-13T02:24:17;14.30;99.90
21271;DHT22;10795;50.796;3.860;2023-07-13T02:26:45;14.30;99.90
21271;DHT22;10795;50.796;3.860;2023-07-13T02:29:11;14.40;99.90
21271;DHT22;10795;50.796;3.860;2023-07-13T02:31:37;14.30;99.90
21271;DHT22;10795;50.796;3.860;2023-07-13T02:34:03;14.50;99.90
21271;DHT22;10795;50.796;3.860;2023-07-13T02:36:30;14.60;99.90
21271;DHT22;10795;50.796;3.860;2023-07-13T02:38:57;14.60;99.90
21271;DHT22;10795;50.796;3.860;2023-07-13T02:41:23;14.80;99.90
21271;DHT22;10795;50.796;3.860;2023-07-13T02:43:49;14.80;99.90
21271;DHT22;10795;50.796;3.860;2023-07-13T02:46:15;14.50;99.90
21271;DHT22;10795;50.796;3.860;2023-07-13T02:48:40;14.40;99.90
21271;DHT22;10795;50.796;3.860;2023-07-13T02:51:07;14.20;99.90
21271;DHT22;10795;50.796;3.860;2023-07-13T02:53:33;14.10;99.90
21271;DHT22;10795;50.796;3.860;2023-07-13T02:55:59;14.60;99.90
21271;DHT22;10795;50.796;3.860;2023-07-13T02:58:25;14.70;99.90
21271;DHT22;10795;50.796;3.860;2023-07-13T03:00:51;14.60;99.90
21271;DHT22;10795;50.796;3.860;2023-07-13T03:03:17;14.50;99.90
21271;DHT22;10795;50.796;3.860;2023-07-13T03:05:45;14.50;99.90
21271;DHT22;10795;50.796;3.860;2023-07-13T03:08:18;14.70;99.90
21271;DHT22;10795;50.796;3.860;2023-07-13T03:10:45;14.60;99.90
21271;DHT22;10795;50.796;3.860;2023-07-13T03:13:12;14.30;99.90
21271;DHT22;10795;50.796;3.860;2023-07-13T03:15:37;14.40;99.90
21271;DHT22;10795;50.796;3.860;2023-07-13T03:18:04;14.20;99.90
21271;DHT22;10795;50.796;3.860;2023-07-13T03:20:33;14.30;99.90
21271;DHT22;10795;50.796;3.860;2023-07-13T03:22:59;14.40;99.90
21271;DHT22;10795;50.796;3.860;2023-07-13T03:25:27;14.40;99.90
21271;DHT22;10795;50.796;3.860;2023-07-13T03:27:53;14.70;99.90
21271;DHT22;10795;50.796;3.860;2023-07-13T03:30:20;14.30;99.90
21271;DHT22;10795;50.796;3.860;2023-07-13T03:32:46;14.40;99.90
21271;DHT22;10795;50.796;3.860;2023-07-13T03:35:12;14.40;99.90
21271;DHT22;10795;50.796;3.860;2023-07-13T03:37:38;14.40;99.90
21271;DHT22;10795;50.796;3.860;2023-07-13T03:40:10;14.30;99.90
21271;DHT22;10795;50.796;3.860;2023-07-13T03:42:36;14.40;99.90
21271;DHT22;10795;50.796;3.860;2023-07-13T03:45:01;14.60;99.90
21271;DHT22;10795;50.796;3.860;2023-07-13T03:47:30;14.70;99.90
21271;DHT22;10795;50.796;3.860;2023-07-13T03:49:56;14.60;99.90
21271;DHT22;10795;50.796;3.860;2023-07-13T03:52:22;14.40;99.90
21271;DHT22;10795;50.796;3.860;2023-07-13T03:54:48;14.20;99.90
21271;DHT22;10795;50.796;3.860;2023-07-13T03:57:15;14.20;99.90
21271;DHT22;10795;50.796;3.860;2023-07-13T03:59:41;14.10;99.90
21271;DHT22;10795;50.796;3.860;2023-07-13T04:02:08;14.50;99.90
21271;DHT22;10795;50.796;3.860;2023-07-13T04:04:34;14.40;99.90
21271;DHT22;10795;50.796;3.860;2023-07-13T04:06:59;14.20;99.90
21271;DHT22;10795;50.796;3.860;2023-07-13T04:09:25;14.30;99.90
21271;DHT22;10795;50.796;3.860;2023-07-13T04:11:51;14.30;99.90
21271;DHT22;10795;50.796;3.860;2023-07-13T04:14:17;14.40;99.90
21271;DHT22;10795;50.796;3.860;2023-07-13T04:16:43;14.50;99.90
21271;DHT22;10795;50.796;3.860;2023-07-13T04:19:09;14.30;99.90
21271;DHT22;10795;50.796;3.860;2023-07-13T04:21:36;14.40;99.90
21271;DHT22;10795;50.796;3.860;2023-07-13T04:24:03;14.40;99.90
21271;DHT22;10795;50.796;3.860;2023-07-13T04:26:29;14.60;99.90
21271;DHT22;10795;50.796;3.860;2023-07-13T04:28:56;15.20;99.90
21271;DHT22;10795;50.796;3.860;2023-07-13T04:31:22;14.90;99.90
21271;DHT22;10795;50.796;3.860;2023-07-13T04:33:48;14.80;99.90
21271;DHT22;10795;50.796;3.860;2023-07-13T04:36:15;14.70;99.90
21271;DHT22;10795;50.796;3.860;2023-07-13T04:38:42;14.80;99.90
21271;DHT22;10795;50.796;3.860;2023-07-13T04:41:08;14.60;99.90
21271;DHT22;10795;50.796;3.860;2023-07-13T04:43:35;14.40;99.90
21271;DHT22;10795;50.796;3.860;2023-07-13T04:46:09;14.40;99.90
21271;DHT22;10795;50.796;3.860;2023-07-13T04:48:36;14.40;99.90
21271;DHT22;10795;50.796;3.860;2023-07-13T04:51:03;14.50;99.90
21271;DHT22;10795;50.796;3.860;2023-07-13T04:53:29;14.50;99.90
21271;DHT22;10795;50.796;3.860;2023-07-13T04:55:56;14.60;99.90
21271;DHT22;10795;50.796;3.860;2023-07-13T04:58:23;14.50;99.90
21271;DHT22;10795;50.796;3.860;2023-07-13T05:00:49;14.50;99.90
21271;DHT22;10795;50.796;3.860;2023-07-13T05:03:15;14.60;99.90
21271;DHT22;10795;50.796;3.860;2023-07-13T05:05:41;14.80;99.90
21271;DHT22;10795;50.796;3.860;2023-07-13T05:08:07;14.70;99.90
21271;DHT22;10795;50.796;3.860;2023-07-13T05:10:33;14.70;99.90
21271;DHT22;10795;50.796;3.860;2023-07-13T05:12:59;14.80;99.90
21271;DHT22;10795;50.796;3.860;2023-07-13T05:15:25;14.80;99.90
21271;DHT22;10795;50.796;3.860;2023-07-13T05:17:51;14.90;99.90
21271;DHT22;10795;50.796;3.860;2023-07-13T05:20:19;15.10;99.90
21271;DHT22;10795;50.796;3.860;2023-07-13T05:22:45;15.10;99.90
21271;DHT22;10795;50.796;3.860;2023-07-13T05:25:12;15.10;99.90
21271;DHT22;10795;50.796;3.860;2023-07-13T05:27:39;15.10;99.90
21271;DHT22;10795;50.796;3.860;2023-07-13T05:30:05;15.00;99.90
21271;DHT22;10795;50.796;3.860;2023-07-13T05:32:32;15.10;99.90
21271;DHT22;10795;50.796;3.860;2023-07-13T05:34:58;15.10;99.90
21271;DHT22;10795;50.796;3.860;2023-07-13T05:37:24;15.00;99.90
21271;DHT22;10795;50.796;3.860;2023-07-13T05:39:49;15.00;99.90
21271;DHT22;10795;50.796;3.860;2023-07-13T05:42:15;15.10;99.90
21271;DHT22;10795;50.796;3.860;2023-07-13T05:44:41;15.20;99.90
21271;DHT22;10795;50.796;3.860;2023-07-13T05:47:07;15.30;99.90
21271;DHT22;10795;50.796;3.860;2023-07-13T05:49:33;15.40;99.90
21271;DHT22;10795;50.796;3.860;2023-07-13T05:51:59;15.30;99.90
21271;DHT22;10795;50.796;3.860;2023-07-13T05:54:24;15.40;99.90
21271;DHT22;10795;50.796;3.860;2023-07-13T05:56:50;15.60;99.90
21271;DHT22;10795;50.796;3.860;2023-07-13T05:59:17;15.50;99.90
21271;DHT22;10795;50.796;3.860;2023-07-13T06:01:43;15.60;99.90
21271;DHT22;10795;50.796;3.860;2023-07-13T06:04:09;15.60;99.90
21271;DHT22;10795;50.796;3.860;2023-07-13T06:06:35;15.60;99.90
21271;DHT22;10795;50.796;3.860;2023-07-13T06:09:01;15.60;99.90
21271;DHT22;10795;50.796;3.860;2023-07-13T06:11:27;15.70;99.90
21271;DHT22;10795;50.796;3.860;2023-07-13T06:13:56;15.70;99.90
21271;DHT22;10795;50.796;3.860;2023-07-13T06:16:22;15.80;99.90
21271;DHT22;10795;50.796;3.860;2023-07-13T06:18:48;15.90;99.90
21271;DHT22;10795;50.796;3.860;2023-07-13T06:21:17;15.90;99.90
21271;DHT22;10795;50.796;3.860;2023-07-13T06:23:44;16.00;99.90
21271;DHT22;10795;50.796;3.860;2023-07-13T06:26:11;16.00;99.90
21271;DHT22;10795;50.796;3.860;2023-07-13T06:28:37;16.10;99.90
21271;DHT22;10795;50.796;3.860;2023-07-13T06:31:09;16.20;99.90
21271;DHT22;10795;50.796;3.860;2023-07-13T06:33:35;16.30;99.90
21271;DHT22;10795;50.796;3.860;2023-07-13T06:36:02;16.40;99.90
21271;DHT22;10795;50.796;3.860;2023-07-13T06:38:28;16.50;99.90
21271;DHT22;10795;50.796;3.860;2023-07-13T06:40:54;16.70;99.90
21271;DHT22;10795;50.796;3.860;2023-07-13T06:43:20;16.80;99.90
21271;DHT22;10795;50.796;3.860;2023-07-13T06:45:48;17.10;99.90
21271;DHT22;10795;50.796;3.860;2023-07-13T06:48:16;17.30;99.90
21271;DHT22;10795;50.796;3.860;2023-07-13T06:50:43;17.20;99.90
21271;DHT22;10795;50.796;3.860;2023-07-13T06:53:10;17.30;99.90
21271;DHT22;10795;50.796;3.860;2023-07-13T06:55:36;17.40;99.90
21271;DHT22;10795;50.796;3.860;2023-07-13T06:58:02;17.50;99.90
21271;DHT22;10795;50.796;3.860;2023-07-13T07:00:28;17.50;99.90
21271;DHT22;10795;50.796;3.860;2023-07-13T07:02:54;17.70;99.90
21271;DHT22;10795;50.796;3.860;2023-07-13T07:05:20;17.80;99.90
21271;DHT22;10795;50.796;3.860;2023-07-13T07:07:51;17.80;99.90
21271;DHT22;10795;50.796;3.860;2023-07-13T07:10:17;18.00;99.90
21271;DHT22;10795;50.796;3.860;2023-07-13T07:12:43;18.20;99.90
21271;DHT22;10795;50.796;3.860;2023-07-13T07:15:09;18.40;99.90
21271;DHT22;10795;50.796;3.860;2023-07-13T07:17:35;18.40;99.90
21271;DHT22;10795;50.796;3.860;2023-07-13T07:20:01;18.40;99.90
21271;DHT22;10795;50.796;3.860;2023-07-13T07:22:27;18.60;99.90
21271;DHT22;10795;50.796;3.860;2023-07-13T07:24:56;18.60;99.90
21271;DHT22;10795;50.796;3.860;2023-07-13T07:27:23;19.00;99.90
21271;DHT22;10795;50.796;3.860;2023-07-13T07:29:49;19.10;99.90
21271;DHT22;10795;50.796;3.860;2023-07-13T07:32:15;19.30;99.90
21271;DHT22;10795;50.796;3.860;2023-07-13T07:34:41;19.30;99.90
21271;DHT22;10795;50.796;3.860;2023-07-13T07:37:06;19.30;99.90
21271;DHT22;10795;50.796;3.860;2023-07-13T07:39:32;19.50;99.90
21271;DHT22;10795;50.796;3.860;2023-07-13T07:41:58;19.40;99.90
21271;DHT22;10795;50.796;3.860;2023-07-13T07:44:24;19.90;99.90
21271;DHT22;10795;50.796;3.860;2023-07-13T07:46:50;19.70;99.90
21271;DHT22;10795;50.796;3.860;2023-07-13T07:49:16;19.50;99.90
21271;DHT22;10795;50.796;3.860;2023-07-13T07:51:42;19.70;99.90
21271;DHT22;10795;50.796;3.860;2023-07-13T07:54:08;19.60;99.90
21271;DHT22;10795;50.796;3.860;2023-07-13T07:56:33;19.40;99.90
21271;DHT22;10795;50.796;3.860;2023-07-13T07:58:59;19.50;99.90
21271;DHT22;10795;50.796;3.860;2023-07-13T08:01:25;19.10;99.90
21271;DHT22;10795;50.796;3.860;2023-07-13T08:03:51;19.30;99.90
21271;DHT22;10795;50.796;3.860;2023-07-13T08:06:17;19.80;99.90
21271;DHT22;10795;50.796;3.860;2023-07-13T08:08:45;19.90;99.90
21271;DHT22;10795;50.796;3.860;2023-07-13T08:11:11;20.40;99.90
21271;DHT22;10795;50.796;3.860;2023-07-13T08:13:37;20.80;99.90
21271;DHT22;10795;50.796;3.860;2023-07-13T08:16:04;20.50;99.90
21271;DHT22;10795;50.796;3.860;2023-07-13T08:18:31;20.60;99.90
21271;DHT22;10795;50.796;3.860;2023-07-13T08:20:57;21.10;99.90
21271;DHT22;10795;50.796;3.860;2023-07-13T08:23:24;21.00;99.90
21271;DHT22;10795;50.796;3.860;2023-07-13T08:25:54;21.00;99.90
21271;DHT22;10795;50.796;3.860;2023-07-13T08:28:21;21.00;99.90
21271;DHT22;10795;50.796;3.860;2023-07-13T08:30:47;21.40;99.90
21271;DHT22;10795;50.796;3.860;2023-07-13T08:33:17;21.70;99.90
21271;DHT22;10795;50.796;3.860;2023-07-13T08:35:46;21.70;99.90
21271;DHT22;10795;50.796;3.860;2023-07-13T08:38:12;21.50;99.90
21271;DHT22;10795;50.796;3.860;2023-07-13T08:40:39;22.20;99.90
21271;DHT22;10795;50.796;3.860;2023-07-13T08:43:15;22.40;99.90
21271;DHT22;10795;50.796;3.860;2023-07-13T08:45:53;22.70;99.90
21271;DHT22;10795;50.796;3.860;2023-07-13T08:48:31;22.40;99.90
21271;DHT22;10795;50.796;3.860;2023-07-13T08:53:50;22.00;99.90
21271;DHT22;10795;50.796;3.860;2023-07-13T08:56:24;22.30;99.90
21271;DHT22;10795;50.796;3.860;2023-07-13T08:59:03;22.30;99.90
21271;DHT22;10795;50.796;3.860;2023-07-13T09:04:32;22.80;99.90
21271;DHT22;10795;50.796;3.860;2023-07-13T09:12:23;22.60;99.90
21271;DHT22;10795;50.796;3.860;2023-07-13T09:14:54;22.20;99.90
21271;DHT22;10795;50.796;3.860;2023-07-13T09:17:25;22.30;99.90
21271;DHT22;10795;50.796;3.860;2023-07-13T09:22:59;23.50;99.90
21271;DHT22;10795;50.796;3.860;2023-07-13T09:25:33;23.30;99.90
21271;DHT22;10795;50.796;3.860;2023-07-13T09:28:13;23.30;99.90
21271;DHT22;10795;50.796;3.860;2023-07-13T09:30:51;22.90;99.90
21271;DHT22;10795;50.796;3.860;2023-07-13T09:33:20;22.90;99.90
21271;DHT22;10795;50.796;3.860;2023-07-13T09:35:46;23.30;99.90
21271;DHT22;10795;50.796;3.860;2023-07-13T09:38:16;22.60;99.90
21271;DHT22;10795;50.796;3.860;2023-07-13T09:46:34;22.00;99.90
21271;DHT22;10795;50.796;3.860;2023-07-13T09:49:00;22.20;99.90
21271;DHT22;10795;50.796;3.860;2023-07-13T09:51:26;22.40;99.90
21271;DHT22;10795;50.796;3.860;2023-07-13T09:53:53;22.60;99.90
21271;DHT22;10795;50.796;3.860;2023-07-13T09:56:25;22.40;99.90
21271;DHT22;10795;50.796;3.860;2023-07-13T09:58:52;22.20;99.90
21271;DHT22;10795;50.796;3.860;2023-07-13T10:01:39;21.90;99.90
21271;DHT22;10795;50.796;3.860;2023-07-13T10:04:29;22.60;99.90
21271;DHT22;10795;50.796;3.860;2023-07-13T10:07:11;23.00;99.90
21271;DHT22;10795;50.796;3.860;2023-07-13T10:09:38;23.10;99.90
21271;DHT22;10795;50.796;3.860;2023-07-13T10:12:15;23.50;99.90
21271;DHT22;10795;50.796;3.860;2023-07-13T10:14:43;23.50;99.90
21271;DHT22;10795;50.796;3.860;2023-07-13T10:17:13;23.40;99.90
21271;DHT22;10795;50.796;3.860;2023-07-13T10:19:41;22.60;99.90
21271;DHT22;10795;50.796;3.860;2023-07-13T10:22:36;22.20;99.90
21271;DHT22;10795;50.796;3.860;2023-07-13T10:25:22;21.90;99.90
21271;DHT22;10795;50.796;3.860;2023-07-13T10:27:52;22.10;99.90
21271;DHT22;10795;50.796;3.860;2023-07-13T10:30:21;22.40;99.90
21271;DHT22;10795;50.796;3.860;2023-07-13T10:32:51;22.70;99.90
21271;DHT22;10795;50.796;3.860;2023-07-13T10:35:20;22.60;99.90
21271;DHT22;10795;50.796;3.860;2023-07-13T10:38:03;22.30;99.90
21271;DHT22;10795;50.796;3.860;2023-07-13T10:45:52;23.00;99.90
21271;DHT22;10795;50.796;3.860;2023-07-13T10:48:23;22.60;99.90
21271;DHT22;10795;50.796;3.860;2023-07-13T10:50:52;22.30;99.90
21271;DHT22;10795;50.796;3.860;2023-07-13T10:53:21;22.20;99.90
21271;DHT22;10795;50.796;3.860;2023-07-13T10:58:23;21.30;99.90
21271;DHT22;10795;50.796;3.860;2023-07-13T11:08:58;21.40;99.90
21271;DHT22;10795;50.796;3.860;2023-07-13T11:21:31;21.90;99.90
21271;DHT22;10795;50.796;3.860;2023-07-13T11:29:33;22.40;99.90
21271;DHT22;10795;50.796;3.860;2023-07-13T11:32:03;22.20;99.90
21271;DHT22;10795;50.796;3.860;2023-07-13T11:34:46;22.40;99.90
21271;DHT22;10795;50.796;3.860;2023-07-13T11:37:14;21.60;99.90
21271;DHT22;10795;50.796;3.860;2023-07-13T11:39:43;21.10;99.90
21271;DHT22;10795;50.796;3.860;2023-07-13T11:42:13;21.20;99.90
21271;DHT22;10795;50.796;3.860;2023-07-13T11:44:50;21.60;99.90
21271;DHT22;10795;50.796;3.860;2023-07-13T11:47:23;21.20;99.90
21271;DHT22;10795;50.796;3.860;2023-07-13T11:49:55;21.40;99.90
21271;DHT22;10795;50.796;3.860;2023-07-13T11:52:36;20.80;99.90
21271;DHT22;10795;50.796;3.860;2023-07-13T11:55:14;20.40;99.90
21271;DHT22;10795;50.796;3.860;2023-07-13T11:57:56;20.50;99.90
21271;DHT22;10795;50.796;3.860;2023-07-13T12:00:28;19.40;99.90
21271;DHT22;10795;50.796;3.860;2023-07-13T12:02:57;19.20;99.90
21271;DHT22;10795;50.796;3.860;2023-07-13T12:05:24;18.20;99.90
21271;DHT22;10795;50.796;3.860;2023-07-13T12:07:51;18.20;99.90
21271;DHT22;10795;50.796;3.860;2023-07-13T12:12:53;18.40;99.90
21271;DHT22;10795;50.796;3.860;2023-07-13T12:15:21;19.70;99.90
21271;DHT22;10795;50.796;3.860;2023-07-13T12:17:48;19.80;99.90
21271;DHT22;10795;50.796;3.860;2023-07-13T12:20:25;20.40;99.90
21271;DHT22;10795;50.796;3.860;2023-07-13T12:22:52;20.50;99.90
21271;DHT22;10795;50.796;3.860;2023-07-13T12:25:19;21.30;99.90
21271;DHT22;10795;50.796;3.860;2023-07-13T12:27:49;21.60;99.90
21271;DHT22;10795;50.796;3.860;2023-07-13T12:33:06;20.20;99.90
21271;DHT22;10795;50.796;3.860;2023-07-13T12:35:45;20.50;99.90
21271;DHT22;10795;50.796;3.860;2023-07-13T12:38:12;20.60;99.90
21271;DHT22;10795;50.796;3.860;2023-07-13T12:40:39;20.00;99.90
21271;DHT22;10795;50.796;3.860;2023-07-13T12:43:14;19.70;99.90
21271;DHT22;10795;50.796;3.860;2023-07-13T12:46:04;20.50;99.90
21271;DHT22;10795;50.796;3.860;2023-07-13T12:48:38;21.40;99.90
21271;DHT22;10795;50.796;3.860;2023-07-13T12:51:04;21.70;99.90
21271;DHT22;10795;50.796;3.860;2023-07-13T12:53:40;21.80;99.90
21271;DHT22;10795;50.796;3.860;2023-07-13T12:56:12;22.00;99.90
21271;DHT22;10795;50.796;3.860;2023-07-13T12:58:41;22.10;99.90
21271;DHT22;10795;50.796;3.860;2023-07-13T13:01:10;21.80;99.90
21271;DHT22;10795;50.796;3.860;2023-07-13T13:03:38;22.30;99.90
21271;DHT22;10795;50.796;3.860;2023-07-13T13:06:21;22.40;99.90
21271;DHT22;10795;50.796;3.860;2023-07-13T13:08:58;22.30;99.90
21271;DHT22;10795;50.796;3.860;2023-07-13T13:11:26;22.60;99.90
21271;DHT22;10795;50.796;3.860;2023-07-13T13:13:53;23.30;99.90
21271;DHT22;10795;50.796;3.860;2023-07-13T13:16:37;23.20;99.90
21271;DHT22;10795;50.796;3.860;2023-07-13T13:19:23;23.30;99.90
21271;DHT22;10795;50.796;3.860;2023-07-13T13:21:54;23.00;99.90
21271;DHT22;10795;50.796;3.860;2023-07-13T13:24:23;22.90;99.90
21271;DHT22;10795;50.796;3.860;2023-07-13T13:26:51;22.70;99.90
21271;DHT22;10795;50.796;3.860;2023-07-13T13:29:22;22.60;99.90
21271;DHT22;10795;50.796;3.860;2023-07-13T13:31:52;23.00;99.90
21271;DHT22;10795;50.796;3.860;2023-07-13T13:34:19;23.10;99.90
21271;DHT22;10795;50.796;3.860;2023-07-13T13:36:46;22.80;99.90
21271;DHT22;10795;50.796;3.860;2023-07-13T13:39:19;22.60;99.90
21271;DHT22;10795;50.796;3.860;2023-07-13T13:41:46;22.80;99.90
21271;DHT22;10795;50.796;3.860;2023-07-13T13:44:14;23.00;99.90
21271;DHT22;10795;50.796;3.860;2023-07-13T13:46:40;23.00;99.90
21271;DHT22;10795;50.796;3.860;2023-07-13T13:49:13;23.10;99.90
21271;DHT22;10795;50.796;3.860;2023-07-13T13:51:40;22.90;99.90
21271;DHT22;10795;50.796;3.860;2023-07-13T13:54:13;22.70;99.90
21271;DHT22;10795;50.796;3.860;2023-07-13T13:56:42;23.00;99.90
21271;DHT22;10795;50.796;3.860;2023-07-13T13:59:08;23.40;99.90
21271;DHT22;10795;50.796;3.860;2023-07-13T14:01:34;23.30;99.90
21271;DHT22;10795;50.796;3.860;2023-07-13T14:04:00;23.60;99.90
21271;DHT22;10795;50.796;3.860;2023-07-13T14:06:26;23.60;99.90
21271;DHT22;10795;50.796;3.860;2023-07-13T14:08:53;23.70;99.90
21271;DHT22;10795;50.796;3.860;2023-07-13T14:11:21;23.70;99.90
21271;DHT22;10795;50.796;3.860;2023-07-13T14:13:58;23.70;99.90
21271;DHT22;10795;50.796;3.860;2023-07-13T14:16:30;24.00;99.90
21271;DHT22;10795;50.796;3.860;2023-07-13T14:18:57;23.90;99.90
21271;DHT22;10795;50.796;3.860;2023-07-13T14:21:27;24.20;99.90
21271;DHT22;10795;50.796;3.860;2023-07-13T14:23:53;24.40;99.90
21271;DHT22;10795;50.796;3.860;2023-07-13T14:26:23;24.40;99.90
21271;DHT22;10795;50.796;3.860;2023-07-13T14:28:53;24.60;99.90
21271;DHT22;10795;50.796;3.860;2023-07-13T14:31:22;25.00;99.90
21271;DHT22;10795;50.796;3.860;2023-07-13T14:33:48;24.70;99.90
21271;DHT22;10795;50.796;3.860;2023-07-13T14:38:48;24.60;99.90
21271;DHT22;10795;50.796;3.860;2023-07-13T14:41:14;24.60;99.90
21271;DHT22;10795;50.796;3.860;2023-07-13T14:43:40;24.60;99.90
21271;DHT22;10795;50.796;3.860;2023-07-13T14:46:11;24.60;99.90
21271;DHT22;10795;50.796;3.860;2023-07-13T14:48:43;24.60;99.90
21271;DHT22;10795;50.796;3.860;2023-07-13T14:51:09;24.80;99.90
21271;DHT22;10795;50.796;3.860;2023-07-13T14:53:36;24.40;99.90
21271;DHT22;10795;50.796;3.860;2023-07-13T14:56:10;24.20;99.90
21271;DHT22;10795;50.796;3.860;2023-07-13T14:58:36;23.90;99.90
21271;DHT22;10795;50.796;3.860;2023-07-13T15:01:02;24.10;99.90
21271;DHT22;10795;50.796;3.860;2023-07-13T15:07:14;24.10;99.90
21271;DHT22;10795;50.796;3.860;2023-07-13T15:09:42;24.60;99.90
21271;DHT22;10795;50.796;3.860;2023-07-13T15:12:13;24.90;99.90
21271;DHT22;10795;50.796;3.860;2023-07-13T15:14:39;24.70;99.90
21271;DHT22;10795;50.796;3.860;2023-07-13T15:17:08;24.70;99.90
21271;DHT22;10795;50.796;3.860;2023-07-13T15:19:40;24.50;99.90
21271;DHT22;10795;50.796;3.860;2023-07-13T15:22:08;24.30;99.90
21271;DHT22;10795;50.796;3.860;2023-07-13T15:24:35;24.60;99.90
21271;DHT22;10795;50.796;3.860;2023-07-13T15:27:04;24.50;99.90
21271;DHT22;10795;50.796;3.860;2023-07-13T15:29:30;24.40;99.90
21271;DHT22;10795;50.796;3.860;2023-07-13T15:31:55;24.70;99.90
21271;DHT22;10795;50.796;3.860;2023-07-13T15:34:24;24.60;99.90
21271;DHT22;10795;50.796;3.860;2023-07-13T15:36:52;24.40;99.90
21271;DHT22;10795;50.796;3.860;2023-07-13T15:39:17;24.30;99.90
21271;DHT22;10795;50.796;3.860;2023-07-13T15:41:46;24.50;99.90
21271;DHT22;10795;50.796;3.860;2023-07-13T15:44:27;24.50;99.90
21271;DHT22;10795;50.796;3.860;2023-07-13T15:46:53;24.70;99.90
21271;DHT22;10795;50.796;3.860;2023-07-13T15:49:22;24.50;99.90
21271;DHT22;10795;50.796;3.860;2023-07-13T15:51:58;24.30;99.90
21271;DHT22;10795;50.796;3.860;2023-07-13T15:54:27;24.30;99.90
21271;DHT22;10795;50.796;3.860;2023-07-13T15:56:55;23.90;99.90
21271;DHT22;10795;50.796;3.860;2023-07-13T15:59:24;23.70;99.90
21271;DHT22;10795;50.796;3.860;2023-07-13T16:02:19;23.30;99.90
21271;DHT22;10795;50.796;3.860;2023-07-13T16:04:58;23.60;99.90
21271;DHT22;10795;50.796;3.860;2023-07-13T16:07:24;24.20;99.90
21271;DHT22;10795;50.796;3.860;2023-07-13T16:09:51;24.50;99.90
21271;DHT22;10795;50.796;3.860;2023-07-13T16:12:25;24.30;99.90
21271;DHT22;10795;50.796;3.860;2023-07-13T16:14:57;24.20;99.90
21271;DHT22;10795;50.796;3.860;2023-07-13T16:17:32;23.80;99.90
21271;DHT22;10795;50.796;3.860;2023-07-13T16:19:58;23.50;99.90
21271;DHT22;10795;50.796;3.860;2023-07-13T16:22:30;23.60;99.90
21271;DHT22;10795;50.796;3.860;2023-07-13T16:25:01;23.60;99.90
21271;DHT22;10795;50.796;3.860;2023-07-13T16:27:59;23.60;99.90
21271;DHT22;10795;50.796;3.860;2023-07-13T16:30:30;23.80;99.90
21271;DHT22;10795;50.796;3.860;2023-07-13T16:33:00;23.70;99.90
21271;DHT22;10795;50.796;3.860;2023-07-13T16:35:41;23.20;99.90
21271;DHT22;10795;50.796;3.860;2023-07-13T16:38:22;23.30;99.90
21271;DHT22;10795;50.796;3.860;2023-07-13T16:40:50;23.10;99.90
21271;DHT22;10795;50.796;3.860;2023-07-13T16:43:19;23.20;99.90
21271;DHT22;10795;50.796;3.860;2023-07-13T16:45:47;23.10;99.90